Overview Statistics Trail Chart Weather Telemetry Raw packets
 

This is the latest recevied weather packets stored in our database for station/object SV9TNF-56. If no packets are shown the sender has not sent any weather packets the latest 10 day(s).

<< 102 103 104 105 106 107 108 >>
Time Temp. Humidity Pressure Rain* Wind** Luminosity Snow
1787892412 26.11° C 57% 1018.3 hPa 0 mm 5.81 m/s, 111° - -
1787892111 26.11° C 59% 1018.3 hPa 0 mm 5.36 m/s, 168° - -
1787891812 25.56° C 61% 1018.3 hPa 0 mm 5.81 m/s, 263° - -
1787891511 25.56° C 64% 1018.3 hPa 0 mm 7.15 m/s, 288° - -
1787891211 25.56° C 65% 1018 hPa 0 mm 3.13 m/s, 306° - -
1787890911 25.56° C 65% 1018.3 hPa 0 mm 1.79 m/s, 307° - -
1787890611 25.56° C 64% 1018 hPa 0 mm 3.13 m/s, 300° - -
1787890311 25.56° C 64% 1018 hPa 0 mm 4.92 m/s, 279° - -
1787890011 26.11° C 61% 1018.3 hPa 0 mm 7.15 m/s, 246° - -
1787889711 26.11° C 59% 1018 hPa 0 mm 4.47 m/s, 210° - -
1787889411 26.11° C 59% 1018 hPa 0 mm 8.94 m/s, 231° - -
1787889110 26.11° C 59% 1018 hPa 0 mm 6.26 m/s, 267° - -
1787888810 25.56° C 59% 1018 hPa 0 mm 5.81 m/s, 218° - -
1787888510 25.56° C 63% 1018 hPa 0 mm 6.26 m/s, 256° - -
1787888210 25.56° C 65% 1018 hPa 0 mm 1.79 m/s, 306° - -
1787887910 25.56° C 67% 1018 hPa 0 mm 3.58 m/s, 306° - -
1787887610 25.56° C 66% 1018.3 hPa 0 mm 3.58 m/s, 263° - -
1787887310 25.56° C 67% 1018 hPa 0 mm 3.13 m/s, 334° - -
1787887010 25.56° C 67% 1018 hPa 0 mm 0 m/s - -
1787886710 25.56° C 64% 1018.3 hPa 0 mm 2.68 m/s, 301° - -
1787886409 26.11° C 59% 1018.3 hPa 0 mm 7.15 m/s, 288° - -
1787886110 26.11° C 58% 1018.3 hPa 0 mm 3.58 m/s, 252° - -
1787885810 26.11° C 58% 1018.3 hPa 0 mm 12.52 m/s, 238° - -
1787885509 26.67° C 57% 1018 hPa 0 mm 16.09 m/s, 268° - -
1787885209 26.67° C 55% 1018.3 hPa 0 mm 16.99 m/s, 317° - -

* Rain latest hour (hover to see other rain measurements)
** Current wind speed in m/s (hover to see current wind gust speed)